createdAt,value
2022-10-13T05:00:10.336Z,8.44
2022-10-13T05:02:38.865Z,8.46
2022-10-13T05:05:08.005Z,8.46
2022-10-13T05:07:36.839Z,8.46
2022-10-13T05:10:06.116Z,8.45
2022-10-13T05:12:35.238Z,8.45
2022-10-13T05:15:03.917Z,8.46
2022-10-13T05:17:35.239Z,8.48
2022-10-13T05:20:10.932Z,8.52
2022-10-13T05:22:39.596Z,8.57
2022-10-13T05:25:08.583Z,8.59
2022-10-13T05:27:37.532Z,8.62
2022-10-13T05:30:06.754Z,8.65
2022-10-13T05:32:36.552Z,8.65
2022-10-13T05:35:05.760Z,8.63
2022-10-13T05:37:33.790Z,8.61
2022-10-13T05:40:02.755Z,8.60
2022-10-13T05:42:31.570Z,8.58
2022-10-13T05:45:00.226Z,8.56
2022-10-13T05:47:28.668Z,8.54
2022-10-13T05:49:58.153Z,8.56
2022-10-13T05:52:26.926Z,8.59
2022-10-13T05:54:59.921Z,8.63
2022-10-13T05:57:31.435Z,8.70
2022-10-13T06:00:03.166Z,8.77
2022-10-13T06:03:01.075Z,8.84
2022-10-13T06:05:32.652Z,8.90
2022-10-13T06:08:01.691Z,8.94
2022-10-13T06:10:30.546Z,9.00
2022-10-13T06:12:59.463Z,9.03
2022-10-13T06:15:28.547Z,9.04
2022-10-13T06:17:58.341Z,9.07
2022-10-13T06:20:28.273Z,9.07
2022-10-13T06:22:57.274Z,9.08
2022-10-13T06:25:26.137Z,9.10
2022-10-13T06:27:54.966Z,9.12
2022-10-13T06:30:24.852Z,9.16
2022-10-13T06:32:56.693Z,9.20
2022-10-13T06:35:26.132Z,9.28
2022-10-13T06:37:54.361Z,9.36
2022-10-13T06:40:23.173Z,9.44
2022-10-13T06:42:52.116Z,9.52
2022-10-13T06:45:24.418Z,9.61
2022-10-13T06:47:56.113Z,9.70
2022-10-13T06:50:25.002Z,9.76
2022-10-13T06:52:55.966Z,9.81
2022-10-13T06:55:24.318Z,9.87
2022-10-13T06:57:53.142Z,9.89
2022-10-13T07:00:22.272Z,9.94
2022-10-13T07:02:52.420Z,9.99
2022-10-13T07:05:21.501Z,10.04
2022-10-13T07:07:52.949Z,10.06
2022-10-13T07:10:22.094Z,10.05
2022-10-13T07:12:51.163Z,10.04
2022-10-13T07:15:19.585Z,10.04
2022-10-13T07:17:54.690Z,10.04
2022-10-13T07:20:24.251Z,10.07
2022-10-13T07:22:58.921Z,10.10
2022-10-13T07:25:28.070Z,10.12
2022-10-13T07:27:58.717Z,10.15
2022-10-13T07:30:27.886Z,10.20
2022-10-13T07:32:57.198Z,10.26
2022-10-13T07:35:30.429Z,10.34
2022-10-13T07:38:00.779Z,10.44
2022-10-13T07:40:29.584Z,10.55
2022-10-13T07:42:58.602Z,10.64
2022-10-13T07:45:27.519Z,10.73
2022-10-13T07:47:57.195Z,10.81
2022-10-13T07:50:25.938Z,10.88
2022-10-13T07:52:55.042Z,10.95
2022-10-13T07:55:23.774Z,11.01
2022-10-13T07:57:55.433Z,11.05
2022-10-13T08:00:24.307Z,11.10
2022-10-13T08:02:52.961Z,11.14
2022-10-13T08:05:21.966Z,11.17
2022-10-13T08:07:53.485Z,11.19
2022-10-13T08:10:25.250Z,11.23
2022-10-13T08:12:54.269Z,11.26
2022-10-13T08:15:22.955Z,11.30
2022-10-13T08:17:51.786Z,11.34
2022-10-13T08:20:21.054Z,11.37
2022-10-13T08:22:50.140Z,11.38
2022-10-13T08:25:18.992Z,11.41
2022-10-13T08:27:51.951Z,11.44
2022-10-13T08:30:22.901Z,11.47
2022-10-13T08:32:51.812Z,11.50
2022-10-13T08:35:20.186Z,11.53
2022-10-13T08:37:49.158Z,11.56
2022-10-13T08:40:20.434Z,11.60
2022-10-13T08:42:49.556Z,11.64
2022-10-13T08:48:33.142Z,11.72
2022-10-13T08:51:03.467Z,11.76
2022-10-13T08:53:34.953Z,11.80
2022-10-13T08:56:08.734Z,11.83
2022-10-13T08:58:39.999Z,11.85
2022-10-13T09:01:11.701Z,11.88
2022-10-13T09:03:57.202Z,11.92
2022-10-13T09:06:29.684Z,11.96
2022-10-13T09:08:59.928Z,11.99
2022-10-13T09:11:34.742Z,12.03
2022-10-13T09:14:08.309Z,12.06
2022-10-13T09:16:39.019Z,12.09
2022-10-13T09:19:23.597Z,12.14
2022-10-13T09:21:54.204Z,12.17
2022-10-13T09:24:23.687Z,12.22
2022-10-13T09:27:02.654Z,12.26
2022-10-13T09:29:32.090Z,12.30
2022-10-13T09:32:10.662Z,12.35
2022-10-13T09:34:39.546Z,12.38
2022-10-13T09:37:17.356Z,12.42
2022-10-13T09:39:45.574Z,12.47
2022-10-13T09:42:18.482Z,12.50
2022-10-13T09:44:48.967Z,12.54
2022-10-13T09:47:27.501Z,12.58
2022-10-13T09:50:07.398Z,12.62
2022-10-13T09:52:36.809Z,12.66
2022-10-13T09:55:29.903Z,12.70
2022-10-13T09:58:05.882Z,12.73
2022-10-13T10:00:35.030Z,12.78
2022-10-13T10:03:26.885Z,12.82
2022-10-13T10:06:01.976Z,12.86
2022-10-13T10:09:02.869Z,12.92
2022-10-13T10:11:40.420Z,12.99
2022-10-13T10:14:21.961Z,13.04
2022-10-13T10:16:55.016Z,13.08
2022-10-13T10:19:29.155Z,13.10
2022-10-13T10:22:09.160Z,13.13
2022-10-13T10:24:49.389Z,13.15
2022-10-13T10:29:55.662Z,13.24
2022-10-13T10:32:43.805Z,13.28
2022-10-13T10:35:14.502Z,13.32
2022-10-13T10:37:45.924Z,13.34
2022-10-13T10:40:49.962Z,13.36
2022-10-13T10:43:21.570Z,13.39
2022-10-13T10:45:50.527Z,13.43
2022-10-13T10:48:25.290Z,13.46
2022-10-13T10:50:54.817Z,13.47
2022-10-13T10:53:36.241Z,13.49
2022-10-13T10:56:11.527Z,13.53
2022-10-13T10:59:06.610Z,13.54
2022-10-13T11:01:45.249Z,13.55
2022-10-13T11:04:24.036Z,13.58
2022-10-13T11:06:52.734Z,13.61
2022-10-13T11:09:43.546Z,13.65
2022-10-13T11:12:21.180Z,13.68
2022-10-13T11:15:13.339Z,13.72
2022-10-13T11:17:42.279Z,13.72
2022-10-13T11:20:22.623Z,13.73
2022-10-13T11:22:56.460Z,13.75
2022-10-13T11:25:44.940Z,13.78
2022-10-13T11:28:22.386Z,13.79
2022-10-13T11:30:52.364Z,13.80
2022-10-13T11:33:34.397Z,13.82
2022-10-13T11:36:21.627Z,13.85
2022-10-13T11:38:56.809Z,13.86
2022-10-13T11:41:32.468Z,13.88
2022-10-13T11:44:08.290Z,13.90
2022-10-13T11:46:52.092Z,13.92
2022-10-13T11:49:39.584Z,13.94
2022-10-13T11:52:23.245Z,13.94
2022-10-13T11:54:57.859Z,13.94
2022-10-13T11:57:27.386Z,13.97
2022-10-13T11:59:57.369Z,13.98
2022-10-13T12:02:31.609Z,13.99
2022-10-13T12:05:07.165Z,14.01
2022-10-13T12:07:41.792Z,14.01
2022-10-13T12:10:17.136Z,14.01
2022-10-13T12:12:49.883Z,14.01
2022-10-13T12:15:40.108Z,14.00
2022-10-13T12:18:26.103Z,13.98
2022-10-13T12:20:55.859Z,13.98
2022-10-13T12:23:25.559Z,13.97
2022-10-13T12:25:59.038Z,13.96
2022-10-13T12:28:30.092Z,13.96
2022-10-13T12:31:00.409Z,13.98
2022-10-13T12:33:36.117Z,13.98
2022-10-13T12:36:34.515Z,13.97
2022-10-13T12:39:08.526Z,13.94
2022-10-13T12:41:39.752Z,13.94
2022-10-13T12:44:12.994Z,13.92
2022-10-13T12:46:45.102Z,13.90
2022-10-13T12:49:17.591Z,13.90
2022-10-13T12:51:48.865Z,13.89
2022-10-13T12:54:26.265Z,13.88
2022-10-13T12:56:57.251Z,13.86
2022-10-13T12:59:27.190Z,13.84
2022-10-13T13:02:00.492Z,13.82
2022-10-13T13:04:29.462Z,13.81
2022-10-13T13:07:00.980Z,13.79
2022-10-13T13:09:34.396Z,13.78
2022-10-13T13:12:16.376Z,13.75
2022-10-13T13:14:45.844Z,13.73
2022-10-13T13:17:33.038Z,13.73
2022-10-13T13:20:20.681Z,13.70
2022-10-13T13:22:51.162Z,13.67
2022-10-13T13:25:20.060Z,13.65
2022-10-13T13:27:49.184Z,13.63
2022-10-13T13:30:19.748Z,13.62
2022-10-13T13:32:48.732Z,13.60
2022-10-13T13:35:17.205Z,13.59
2022-10-13T13:37:51.236Z,13.57
2022-10-13T13:40:28.037Z,13.55
2022-10-13T13:42:56.361Z,13.53
2022-10-13T13:45:26.908Z,13.51
2022-10-13T13:48:00.401Z,13.48
2022-10-13T13:50:33.805Z,13.48
2022-10-13T13:53:03.149Z,13.46
2022-10-13T13:55:32.455Z,13.45
2022-10-13T13:58:01.946Z,13.45
2022-10-13T14:00:30.675Z,13.44
2022-10-13T14:02:59.178Z,13.43
2022-10-13T14:05:27.662Z,13.41
2022-10-13T14:07:59.741Z,13.39
2022-10-13T14:10:29.536Z,13.37
2022-10-13T14:12:58.379Z,13.36
2022-10-13T14:15:29.679Z,13.35
2022-10-13T14:17:58.510Z,13.33
2022-10-13T14:20:26.795Z,13.32
2022-10-13T14:22:55.214Z,13.30
2022-10-13T14:25:23.346Z,13.28
2022-10-13T14:27:51.526Z,13.25
2022-10-13T14:30:19.726Z,13.23
2022-10-13T14:32:48.003Z,13.20
2022-10-13T14:35:16.172Z,13.17
2022-10-13T14:37:44.209Z,13.14
2022-10-13T14:40:12.248Z,13.12
2022-10-13T14:42:42.645Z,13.09
2022-10-13T14:45:16.061Z,13.06
2022-10-13T14:47:44.409Z,13.03
2022-10-13T14:50:12.747Z,13.00
2022-10-13T14:52:41.152Z,12.96
2022-10-13T14:55:09.780Z,12.91
2022-10-13T14:57:40.081Z,12.85
2022-10-13T15:00:11.008Z,12.79
2022-10-13T15:02:39.978Z,12.74
2022-10-13T15:05:09.377Z,12.69
2022-10-13T15:07:41.133Z,12.62
2022-10-13T15:10:10.458Z,12.56
2022-10-13T15:12:39.315Z,12.48
2022-10-13T15:15:08.253Z,12.41
2022-10-13T15:17:37.724Z,12.34
2022-10-13T15:20:07.274Z,12.27
2022-10-13T15:22:36.343Z,12.20
2022-10-13T15:25:10.624Z,12.13
2022-10-13T15:27:42.157Z,12.07
2022-10-13T15:30:14.970Z,11.99
2022-10-13T15:32:43.861Z,11.92
2022-10-13T15:35:13.424Z,11.84
2022-10-13T15:37:43.424Z,11.77
2022-10-13T15:40:12.801Z,11.71
2022-10-13T15:42:41.657Z,11.64
2022-10-13T15:45:11.673Z,11.57
2022-10-13T15:47:40.790Z,11.50
2022-10-13T15:50:10.158Z,11.45
2022-10-13T15:52:40.792Z,11.38
2022-10-13T15:55:11.030Z,11.31
2022-10-13T15:57:40.229Z,11.23
2022-10-13T16:00:09.986Z,11.16
2022-10-13T16:02:42.620Z,11.08
2022-10-13T16:05:14.121Z,10.98
2022-10-13T16:07:47.150Z,10.88
2022-10-13T16:10:17.588Z,10.78
2022-10-13T16:12:49.573Z,10.71
2022-10-13T16:15:19.273Z,10.64
2022-10-13T16:17:48.076Z,10.58
2022-10-13T16:20:17.435Z,10.53
2022-10-13T16:22:46.036Z,10.50
2022-10-13T16:25:14.537Z,10.45
2022-10-13T16:27:44.746Z,10.42
2022-10-13T16:30:13.687Z,10.40
2022-10-13T16:32:42.716Z,10.34
2022-10-13T16:35:11.934Z,10.29
2022-10-13T16:37:40.528Z,10.25
2022-10-13T16:40:13.125Z,10.21
2022-10-13T16:42:42.951Z,10.19
2022-10-13T16:45:11.873Z,10.19
2022-10-13T16:47:40.658Z,10.18
2022-10-13T16:50:10.674Z,10.19
2022-10-13T16:52:42.709Z,10.20
2022-10-13T16:55:11.463Z,10.21
2022-10-13T16:57:40.211Z,10.21
2022-10-13T17:00:09.570Z,10.20
2022-10-13T17:02:38.310Z,10.17
2022-10-13T17:05:07.222Z,10.14
2022-10-13T17:07:36.930Z,10.09
2022-10-13T17:10:06.245Z,10.04
2022-10-13T17:12:35.048Z,9.99
2022-10-13T17:15:03.905Z,9.92
2022-10-13T17:17:35.278Z,9.85
2022-10-13T17:20:04.903Z,9.78
2022-10-13T17:22:34.085Z,9.72
2022-10-13T17:25:05.346Z,9.66
2022-10-13T17:27:40.148Z,9.60
2022-10-13T17:30:09.642Z,9.56
2022-10-13T17:32:39.333Z,9.52
2022-10-13T17:35:11.404Z,9.48
2022-10-13T17:37:40.583Z,9.42
2022-10-13T17:40:09.692Z,9.38
2022-10-13T17:42:38.828Z,9.33
2022-10-13T17:45:07.295Z,9.30
2022-10-13T17:47:35.741Z,9.27
2022-10-13T17:50:04.026Z,9.25
2022-10-13T17:52:32.069Z,9.24
2022-10-13T17:55:00.277Z,9.22
2022-10-13T17:57:30.102Z,9.19
2022-10-13T18:00:00.727Z,9.14
2022-10-13T18:02:29.955Z,9.10
2022-10-13T18:05:01.026Z,9.08
2022-10-13T18:07:29.618Z,9.06
2022-10-13T18:09:58.357Z,9.07
2022-10-13T18:12:29.367Z,9.09
2022-10-13T18:14:57.514Z,9.13
2022-10-13T18:17:25.570Z,9.16
2022-10-13T18:19:54.086Z,9.20
2022-10-13T18:22:22.134Z,9.22
2022-10-13T18:24:56.945Z,9.23
2022-10-13T18:27:25.309Z,9.23
2022-10-13T18:29:53.347Z,9.21
2022-10-13T18:32:22.952Z,9.19
2022-10-13T18:34:51.261Z,9.15
2022-10-13T18:37:19.571Z,9.12
2022-10-13T18:39:50.291Z,9.09
2022-10-13T18:42:18.721Z,9.07
2022-10-13T18:44:47.075Z,9.04
2022-10-13T18:47:15.883Z,9.00
2022-10-13T18:49:44.110Z,8.96
2022-10-13T18:52:13.506Z,8.90
2022-10-13T18:54:42.587Z,8.88
2022-10-13T18:57:10.751Z,8.85
2022-10-13T18:59:39.368Z,8.82
2022-10-13T19:02:08.236Z,8.81
2022-10-13T19:04:37.200Z,8.80
2022-10-13T19:07:05.868Z,8.79
2022-10-13T19:09:34.285Z,8.77
2022-10-13T19:12:02.434Z,8.76
2022-10-13T19:14:30.929Z,8.74
2022-10-13T19:17:01.956Z,8.72
2022-10-13T19:19:31.270Z,8.70
2022-10-13T19:22:02.639Z,8.68
2022-10-13T19:24:31.200Z,8.67
2022-10-13T19:27:00.121Z,8.68
2022-10-13T19:29:30.844Z,8.70
2022-10-13T19:31:59.472Z,8.74
2022-10-13T19:34:28.183Z,8.77
2022-10-13T19:37:00.316Z,8.81
2022-10-13T19:39:28.576Z,8.85
2022-10-13T19:41:57.957Z,8.88
2022-10-13T19:44:26.524Z,8.91
2022-10-13T19:46:55.780Z,8.93
2022-10-13T19:49:26.749Z,8.92
2022-10-13T19:51:56.223Z,8.90
2022-10-13T19:54:27.932Z,8.86
2022-10-13T19:56:58.629Z,8.85
2022-10-13T19:59:27.715Z,8.84
2022-10-13T20:01:57.054Z,8.83
2022-10-13T20:04:25.925Z,8.83
2022-10-13T20:06:54.550Z,8.81
2022-10-13T20:09:23.207Z,8.80
2022-10-13T20:11:52.262Z,8.78
2022-10-13T20:14:21.411Z,8.76
2022-10-13T20:16:50.079Z,8.74
2022-10-13T20:19:21.508Z,8.72
2022-10-13T20:21:53.558Z,8.71
2022-10-13T20:24:23.515Z,8.69
2022-10-13T20:26:52.549Z,8.68
2022-10-13T20:29:24.029Z,8.66
2022-10-13T20:31:52.823Z,8.65
2022-10-13T20:34:24.320Z,8.65
2022-10-13T20:36:53.067Z,8.63
2022-10-13T20:39:21.201Z,8.62
2022-10-13T20:41:49.761Z,8.64
2022-10-13T20:44:21.775Z,8.66
2022-10-13T20:46:51.840Z,8.69
2022-10-13T20:49:23.213Z,8.74
2022-10-13T20:51:51.607Z,8.80
2022-10-13T20:54:20.026Z,8.87
2022-10-13T20:56:48.959Z,8.95
2022-10-13T20:59:17.720Z,9.02
2022-10-13T21:01:46.514Z,9.06
2022-10-13T21:04:14.676Z,9.10
2022-10-13T21:06:43.131Z,9.13
2022-10-13T21:09:12.048Z,9.15
2022-10-13T21:11:43.665Z,9.16
2022-10-13T21:14:12.178Z,9.16
2022-10-13T21:16:41.967Z,9.13
2022-10-13T21:19:11.216Z,9.10
2022-10-13T21:21:39.589Z,9.08
2022-10-13T21:24:08.690Z,9.05
2022-10-13T21:26:38.187Z,9.03
2022-10-13T21:29:08.037Z,9.00
2022-10-13T21:31:36.534Z,8.98
2022-10-13T21:34:05.017Z,8.94
2022-10-13T21:36:33.803Z,8.92
2022-10-13T21:39:04.983Z,8.89
2022-10-13T21:41:34.778Z,8.84
2022-10-13T21:44:03.638Z,8.81
2022-10-13T21:46:35.012Z,8.77
2022-10-13T21:49:05.388Z,8.73
2022-10-13T21:51:34.970Z,8.68
2022-10-13T21:54:05.510Z,8.65
2022-10-13T21:56:34.743Z,8.64
2022-10-13T21:59:03.055Z,8.62
2022-10-13T22:01:32.042Z,8.61
2022-10-13T22:04:01.593Z,8.63
2022-10-13T22:06:32.265Z,8.65
2022-10-13T22:09:02.045Z,8.68
2022-10-13T22:11:31.830Z,8.69
2022-10-13T22:14:03.408Z,8.69
2022-10-13T22:16:34.094Z,8.68
2022-10-13T22:19:02.694Z,8.69
2022-10-13T22:21:33.476Z,8.68
2022-10-13T22:24:03.323Z,8.67
2022-10-13T22:26:32.431Z,8.64
2022-10-13T22:29:01.865Z,8.60
2022-10-13T22:31:34.154Z,8.57
2022-10-13T22:34:12.128Z,8.52
2022-10-13T22:36:44.493Z,8.48
2022-10-13T22:39:15.260Z,8.45
2022-10-13T22:41:44.597Z,8.40
2022-10-13T22:44:14.096Z,8.36
2022-10-13T22:46:43.112Z,8.32
2022-10-13T22:49:15.601Z,8.29
2022-10-13T22:51:44.350Z,8.26
2022-10-13T22:54:12.689Z,8.24
2022-10-13T22:56:41.425Z,8.21
2022-10-13T22:59:11.319Z,8.20
2022-10-13T23:01:40.280Z,8.20
2022-10-13T23:04:09.263Z,8.22
2022-10-13T23:06:37.504Z,8.24
2022-10-13T23:09:09.890Z,8.28
2022-10-13T23:11:39.264Z,8.32
2022-10-13T23:14:10.625Z,8.36
2022-10-13T23:16:39.830Z,8.39
2022-10-13T23:19:08.789Z,8.40
2022-10-13T23:21:37.611Z,8.39
2022-10-13T23:24:06.885Z,8.40
2022-10-13T23:26:35.582Z,8.40
2022-10-13T23:29:05.474Z,8.41
2022-10-13T23:31:34.670Z,8.41
2022-10-13T23:34:03.032Z,8.38
2022-10-13T23:36:32.688Z,8.34
2022-10-13T23:39:03.210Z,8.32
2022-10-13T23:41:33.397Z,8.30
2022-10-13T23:44:05.224Z,8.29
2022-10-13T23:46:34.161Z,8.28
2022-10-13T23:49:02.407Z,8.27
2022-10-13T23:51:31.678Z,8.26
2022-10-13T23:54:01.384Z,8.25
2022-10-13T23:56:30.094Z,8.23
2022-10-13T23:58:58.606Z,8.23
